Time,TemperatureF,DewpointF,PressureIn,WindDirection,WindDirectionDegrees,WindSpeedMPH,WindSpeedGustMPH,Humidity,HourlyPrecipIn,Conditions,Clouds,dailyrainin,SoftwareType,DateUTC
2013-12-04 00:00:00,2.0,-99.9,-100.00,NE,43,18.0,20.0,-999,-99.99,,,-99.99,,2013-12-04 07:00:00,
2013-12-04 00:42:00,2.0,-99.9,-100.00,NE,43,18.0,20.0,-999,-99.99,,,-99.99,,2013-12-04 07:42:00,
2013-12-04 00:52:00,2.0,-99.9,-100.00,NE,43,18.0,20.0,-999,-99.99,,,-99.99,,2013-12-04 07:52:00,
2013-12-04 01:00:00,2.0,-99.9,-100.00,NE,48,20.0,25.0,-999,-99.99,,,-99.99,,2013-12-04 08:00:00,
2013-12-04 01:42:00,2.0,-99.9,-100.00,NE,48,20.0,25.0,-999,-99.99,,,-99.99,,2013-12-04 08:42:00,
2013-12-04 01:53:00,2.0,-99.9,-100.00,NE,48,20.0,25.0,-999,-99.99,,,-99.99,,2013-12-04 08:53:00,
2013-12-04 02:00:00,1.0,-99.9,-100.00,NE,54,14.0,16.0,-999,-99.99,,,-99.99,,2013-12-04 09:00:00,
2013-12-04 02:43:00,1.0,-99.9,-100.00,NE,54,14.0,16.0,-999,-99.99,,,-99.99,,2013-12-04 09:43:00,
2013-12-04 02:54:00,1.0,-99.9,-100.00,NE,54,14.0,16.0,-999,-99.99,,,-99.99,,2013-12-04 09:54:00,
2013-12-04 04:00:00,1.0,-99.9,-100.00,ENE,69,10.0,11.0,-999,-99.99,,,-99.99,,2013-12-04 11:00:00,
2013-12-04 04:42:00,1.0,-99.9,-100.00,ENE,69,10.0,11.0,-999,-99.99,,,-99.99,,2013-12-04 11:42:00,
2013-12-04 04:53:00,1.0,-99.9,-100.00,ENE,69,10.0,11.0,-999,-99.99,,,-99.99,,2013-12-04 11:53:00,
2013-12-04 05:00:00,1.0,-99.9,-100.00,NE,38,3.0,5.0,-999,-99.99,,,-99.99,,2013-12-04 12:00:00,
2013-12-04 05:42:00,1.0,-99.9,-100.00,NE,38,3.0,5.0,-999,-99.99,,,-99.99,,2013-12-04 12:42:00,
2013-12-04 05:52:00,1.0,-99.9,-100.00,NE,38,3.0,5.0,-999,-99.99,,,-99.99,,2013-12-04 12:52:00,
2013-12-04 06:00:00,1.0,-99.9,-100.00,NNE,30,11.0,13.0,-999,-99.99,,,-99.99,,2013-12-04 13:00:00,
2013-12-04 06:42:00,1.0,-99.9,-100.00,NNE,30,11.0,13.0,-999,-99.99,,,-99.99,,2013-12-04 13:42:00,
2013-12-04 06:52:00,1.0,-99.9,-100.00,NNE,30,11.0,13.0,-999,-99.99,,,-99.99,,2013-12-04 13:52:00,
2013-12-04 07:00:00,-1.0,-99.9,-100.00,NE,48,9.0,10.0,-999,-99.99,,,-99.99,,2013-12-04 14:00:00,
2013-12-04 07:42:00,-1.0,-99.9,-100.00,NE,48,9.0,10.0,-999,-99.99,,,-99.99,,2013-12-04 14:42:00,
2013-12-04 07:52:00,-1.0,-99.9,-100.00,NE,48,9.0,10.0,-999,-99.99,,,-99.99,,2013-12-04 14:52:00,
2013-12-04 08:00:00,-1.0,-99.9,-100.00,NE,52,8.0,8.0,-999,-99.99,,,-99.99,,2013-12-04 15:00:00,
2013-12-04 08:22:00,-1.0,-99.9,-100.00,NE,52,8.0,8.0,-999,-99.99,,,-99.99,,2013-12-04 15:22:00,
2013-12-04 08:33:00,-1.0,-99.9,-100.00,NE,52,8.0,8.0,-999,-99.99,,,-99.99,,2013-12-04 15:33:00,
2013-12-04 08:44:00,-1.0,-99.9,-100.00,NE,52,8.0,8.0,-999,-99.99,,,-99.99,,2013-12-04 15:44:00,
2013-12-04 08:54:00,-1.0,-99.9,-100.00,NE,52,8.0,8.0,-999,-99.99,,,-99.99,,2013-12-04 15:54:00,
2013-12-04 09:00:00,-1.0,-99.9,-100.00,ENE,60,6.0,7.0,-999,-99.99,,,-99.99,,2013-12-04 16:00:00,
2013-12-04 09:43:00,-1.0,-99.9,-100.00,ENE,60,6.0,7.0,-999,-99.99,,,-99.99,,2013-12-04 16:43:00,
2013-12-04 09:53:00,-1.0,-99.9,-100.00,ENE,60,6.0,7.0,-999,-99.99,,,-99.99,,2013-12-04 16:53:00,
2013-12-04 10:00:00,2.0,-99.9,-100.00,South,177,4.0,4.0,-999,-99.99,,,-99.99,,2013-12-04 17:00:00,
2013-12-04 10:43:00,2.0,-99.9,-100.00,South,177,4.0,4.0,-999,-99.99,,,-99.99,,2013-12-04 17:43:00,
2013-12-04 10:53:00,2.0,-99.9,-100.00,South,177,4.0,4.0,-999,-99.99,,,-99.99,,2013-12-04 17:53:00,
2013-12-04 11:00:00,5.0,-99.9,-100.00,East,84,0.0,2.0,-999,-99.99,,,-99.99,,2013-12-04 18:00:00,
2013-12-04 11:42:00,5.0,-99.9,-100.00,East,84,0.0,2.0,-999,-99.99,,,-99.99,,2013-12-04 18:42:00,
2013-12-04 11:52:00,5.0,-99.9,-100.00,East,84,0.0,2.0,-999,-99.99,,,-99.99,,2013-12-04 18:52:00,
2013-12-04 12:00:00,4.0,-99.9,-100.00,East,90,3.0,4.0,-999,-99.99,,,-99.99,,2013-12-04 19:00:00,
2013-12-04 12:22:00,4.0,-99.9,-100.00,East,90,3.0,4.0,-999,-99.99,,,-99.99,,2013-12-04 19:22:00,
2013-12-04 12:32:00,4.0,-99.9,-100.00,East,90,3.0,4.0,-999,-99.99,,,-99.99,,2013-12-04 19:32:00,
2013-12-04 12:42:00,4.0,-99.9,-100.00,East,90,3.0,4.0,-999,-99.99,,,-99.99,,2013-12-04 19:42:00,
2013-12-04 12:52:00,4.0,-99.9,-100.00,East,90,3.0,4.0,-999,-99.99,,,-99.99,,2013-12-04 19:52:00,
2013-12-04 13:00:00,3.0,-99.9,-100.00,ESE,115,4.0,4.0,-999,-99.99,,,-99.99,,2013-12-04 20:00:00,
2013-12-04 13:22:00,3.0,-99.9,-100.00,ESE,115,4.0,4.0,-999,-99.99,,,-99.99,,2013-12-04 20:22:00,
2013-12-04 13:32:00,3.0,-99.9,-100.00,ESE,115,4.0,4.0,-999,-99.99,,,-99.99,,2013-12-04 20:32:00,
2013-12-04 13:42:00,3.0,-99.9,-100.00,ESE,115,4.0,4.0,-999,-99.99,,,-99.99,,2013-12-04 20:42:00,
2013-12-04 13:52:00,3.0,-99.9,-100.00,ESE,115,4.0,4.0,-999,-99.99,,,-99.99,,2013-12-04 20:52:00,
2013-12-04 14:00:00,3.0,-99.9,-100.00,SSE,158,1.0,2.0,-999,-99.99,,,-99.99,,2013-12-04 21:00:00,
2013-12-04 14:22:00,3.0,-99.9,-100.00,SSE,158,1.0,2.0,-999,-99.99,,,-99.99,,2013-12-04 21:22:00,
2013-12-04 14:33:00,3.0,-99.9,-100.00,SSE,158,1.0,2.0,-999,-99.99,,,-99.99,,2013-12-04 21:33:00,
2013-12-04 14:44:00,3.0,-99.9,-100.00,SSE,158,1.0,2.0,-999,-99.99,,,-99.99,,2013-12-04 21:44:00,
2013-12-04 14:54:00,3.0,-99.9,-100.00,SSE,158,1.0,2.0,-999,-99.99,,,-99.99,,2013-12-04 21:54:00,
2013-12-04 17:00:00,-4.0,-99.9,-100.00,SW,225,8.0,9.0,-999,-99.99,,,-99.99,,2013-12-05 00:00:00,
2013-12-04 17:22:00,-4.0,-99.9,-100.00,SW,225,8.0,9.0,-999,-99.99,,,-99.99,,2013-12-05 00:22:00,
2013-12-04 17:32:00,-4.0,-99.9,-100.00,SW,225,8.0,9.0,-999,-99.99,,,-99.99,,2013-12-05 00:32:00,
2013-12-04 17:42:00,-4.0,-99.9,-100.00,SW,225,8.0,9.0,-999,-99.99,,,-99.99,,2013-12-05 00:42:00,
2013-12-04 17:52:00,-4.0,-99.9,-100.00,SW,225,8.0,9.0,-999,-99.99,,,-99.99,,2013-12-05 00:52:00,
2013-12-04 19:00:00,-6.0,-99.9,-100.00,SW,220,13.0,15.0,-999,-99.99,,,-99.99,,2013-12-05 02:00:00,
2013-12-04 19:52:00,-6.0,-99.9,-100.00,SW,220,13.0,15.0,-999,-99.99,,,-99.99,,2013-12-05 02:52:00,
2013-12-04 20:00:00,-9.0,-99.9,-100.00,SW,221,9.0,10.0,-999,-99.99,,,-99.99,,2013-12-05 03:00:00,
2013-12-04 20:43:00,-9.0,-99.9,-100.00,SW,221,9.0,10.0,-999,-99.99,,,-99.99,,2013-12-05 03:43:00,
2013-12-04 20:54:00,-9.0,-99.9,-100.00,SW,221,9.0,10.0,-999,-99.99,,,-99.99,,2013-12-05 03:54:00,
2013-12-04 21:00:00,-9.0,-99.9,-100.00,SW,226,10.0,12.0,-999,-99.99,,,-99.99,,2013-12-05 04:00:00,
2013-12-04 21:43:00,-9.0,-99.9,-100.00,SW,226,10.0,12.0,-999,-99.99,,,-99.99,,2013-12-05 04:43:00,
2013-12-04 21:53:00,-9.0,-99.9,-100.00,SW,226,10.0,12.0,-999,-99.99,,,-99.99,,2013-12-05 04:53:00,
2013-12-04 22:00:00,-9.0,-99.9,-100.00,SW,223,10.0,12.0,-999,-99.99,,,-99.99,,2013-12-05 05:00:00,
2013-12-04 22:43:00,-9.0,-99.9,-100.00,SW,223,10.0,12.0,-999,-99.99,,,-99.99,,2013-12-05 05:43:00,
2013-12-04 22:53:00,-9.0,-99.9,-100.00,SW,223,10.0,12.0,-999,-99.99,,,-99.99,,2013-12-05 05:53:00,
2013-12-04 23:00:00,-8.0,-99.9,-100.00,SW,224,9.0,10.0,-999,-99.99,,,-99.99,,2013-12-05 06:00:00,
2013-12-04 23:43:00,-8.0,-99.9,-100.00,SW,224,9.0,10.0,-999,-99.99,,,-99.99,,2013-12-05 06:43:00,
2013-12-04 23:52:00,-8.0,-99.9,-100.00,SW,224,9.0,10.0,-999,-99.99,,,-99.99,,2013-12-05 06:52:00,